sensor_id;sensor_type;location;lat;lon;timestamp;P1;durP1;ratioP1;P2;durP2;ratioP2
44143;SDS011;71749;51.920;4.492;2024-03-08T00:00:02;35.75;;;20.55;;
44143;SDS011;71749;51.920;4.492;2024-03-08T00:03:01;35.38;;;20.92;;
44143;SDS011;71749;51.920;4.492;2024-03-08T00:05:48;35.72;;;20.08;;
44143;SDS011;71749;51.920;4.492;2024-03-08T00:08:33;37.10;;;21.90;;
44143;SDS011;71749;51.920;4.492;2024-03-08T00:11:19;37.17;;;21.05;;
44143;SDS011;71749;51.920;4.492;2024-03-08T00:14:06;35.38;;;21.45;;
44143;SDS011;71749;51.920;4.492;2024-03-08T00:16:53;37.42;;;20.55;;
44143;SDS011;71749;51.920;4.492;2024-03-08T00:19:39;33.33;;;21.65;;
44143;SDS011;71749;51.920;4.492;2024-03-08T00:22:24;36.42;;;20.75;;
44143;SDS011;71749;51.920;4.492;2024-03-08T00:25:10;35.17;;;21.20;;
44143;SDS011;71749;51.920;4.492;2024-03-08T00:27:55;35.83;;;21.92;;
44143;SDS011;71749;51.920;4.492;2024-03-08T00:30:41;36.92;;;21.75;;
44143;SDS011;71749;51.920;4.492;2024-03-08T00:33:27;33.58;;;20.00;;
44143;SDS011;71749;51.920;4.492;2024-03-08T00:36:13;34.00;;;20.80;;
44143;SDS011;71749;51.920;4.492;2024-03-08T00:39:01;34.50;;;20.70;;
44143;SDS011;71749;51.920;4.492;2024-03-08T00:41:47;35.17;;;21.67;;
44143;SDS011;71749;51.920;4.492;2024-03-08T00:44:33;32.92;;;20.05;;
44143;SDS011;71749;51.920;4.492;2024-03-08T00:47:18;35.63;;;21.10;;
44143;SDS011;71749;51.920;4.492;2024-03-08T00:50:04;35.05;;;20.38;;
44143;SDS011;71749;51.920;4.492;2024-03-08T00:52:50;33.42;;;19.77;;
44143;SDS011;71749;51.920;4.492;2024-03-08T00:55:35;30.95;;;20.25;;
44143;SDS011;71749;51.920;4.492;2024-03-08T00:58:21;36.70;;;20.98;;
44143;SDS011;71749;51.920;4.492;2024-03-08T01:01:07;34.10;;;21.10;;
44143;SDS011;71749;51.920;4.492;2024-03-08T01:03:55;34.25;;;21.00;;
44143;SDS011;71749;51.920;4.492;2024-03-08T01:06:41;31.13;;;20.45;;
44143;SDS011;71749;51.920;4.492;2024-03-08T01:09:30;33.63;;;20.83;;
44143;SDS011;71749;51.920;4.492;2024-03-08T01:12:15;35.15;;;20.65;;
44143;SDS011;71749;51.920;4.492;2024-03-08T01:15:01;31.73;;;20.05;;
44143;SDS011;71749;51.920;4.492;2024-03-08T01:17:47;36.95;;;20.35;;
44143;SDS011;71749;51.920;4.492;2024-03-08T01:20:33;34.22;;;20.85;;
44143;SDS011;71749;51.920;4.492;2024-03-08T01:23:18;32.78;;;20.20;;
44143;SDS011;71749;51.920;4.492;2024-03-08T01:26:03;32.28;;;20.83;;
44143;SDS011;71749;51.920;4.492;2024-03-08T01:28:49;30.13;;;18.55;;
44143;SDS011;71749;51.920;4.492;2024-03-08T01:31:35;33.35;;;20.77;;
44143;SDS011;71749;51.920;4.492;2024-03-08T01:34:22;31.33;;;18.83;;
44143;SDS011;71749;51.920;4.492;2024-03-08T01:37:10;34.00;;;20.15;;
44143;SDS011;71749;51.920;4.492;2024-03-08T01:39:56;32.97;;;18.73;;
44143;SDS011;71749;51.920;4.492;2024-03-08T01:42:42;32.05;;;20.00;;
44143;SDS011;71749;51.920;4.492;2024-03-08T01:45:28;32.92;;;20.13;;
44143;SDS011;71749;51.920;4.492;2024-03-08T01:48:14;35.22;;;19.92;;
44143;SDS011;71749;51.920;4.492;2024-03-08T01:51:02;31.38;;;19.10;;
44143;SDS011;71749;51.920;4.492;2024-03-08T01:53:47;31.42;;;19.38;;
44143;SDS011;71749;51.920;4.492;2024-03-08T01:56:33;28.10;;;18.30;;
44143;SDS011;71749;51.920;4.492;2024-03-08T01:59:19;31.60;;;19.05;;
44143;SDS011;71749;51.920;4.492;2024-03-08T02:02:05;35.55;;;20.42;;
44143;SDS011;71749;51.920;4.492;2024-03-08T02:04:51;31.67;;;18.80;;
44143;SDS011;71749;51.920;4.492;2024-03-08T02:07:38;29.85;;;17.85;;
44143;SDS011;71749;51.920;4.492;2024-03-08T02:10:28;31.75;;;19.17;;
44143;SDS011;71749;51.920;4.492;2024-03-08T02:13:14;31.08;;;18.35;;
44143;SDS011;71749;51.920;4.492;2024-03-08T02:15:59;30.27;;;18.52;;
44143;SDS011;71749;51.920;4.492;2024-03-08T02:18:45;29.75;;;18.80;;
44143;SDS011;71749;51.920;4.492;2024-03-08T02:21:32;29.98;;;18.58;;
44143;SDS011;71749;51.920;4.492;2024-03-08T02:24:18;30.73;;;18.25;;
44143;SDS011;71749;51.920;4.492;2024-03-08T02:27:04;30.67;;;18.42;;
44143;SDS011;71749;51.920;4.492;2024-03-08T02:29:50;32.10;;;18.55;;
44143;SDS011;71749;51.920;4.492;2024-03-08T02:32:41;31.20;;;19.38;;
44143;SDS011;71749;51.920;4.492;2024-03-08T02:35:26;31.60;;;19.15;;
44143;SDS011;71749;51.920;4.492;2024-03-08T02:38:12;29.40;;;18.52;;
44143;SDS011;71749;51.920;4.492;2024-03-08T02:41:03;31.60;;;18.75;;
44143;SDS011;71749;51.920;4.492;2024-03-08T02:43:49;28.20;;;18.90;;
44143;SDS011;71749;51.920;4.492;2024-03-08T02:46:35;28.77;;;18.33;;
44143;SDS011;71749;51.920;4.492;2024-03-08T02:49:21;25.30;;;17.23;;
44143;SDS011;71749;51.920;4.492;2024-03-08T02:52:06;30.42;;;18.27;;
44143;SDS011;71749;51.920;4.492;2024-03-08T02:54:52;29.30;;;19.05;;
44143;SDS011;71749;51.920;4.492;2024-03-08T02:57:38;29.75;;;18.77;;
44143;SDS011;71749;51.920;4.492;2024-03-08T03:00:23;29.33;;;19.08;;
44143;SDS011;71749;51.920;4.492;2024-03-08T03:03:13;31.60;;;20.25;;
44143;SDS011;71749;51.920;4.492;2024-03-08T03:06:00;28.63;;;18.02;;
44143;SDS011;71749;51.920;4.492;2024-03-08T03:08:46;28.75;;;18.77;;
44143;SDS011;71749;51.920;4.492;2024-03-08T03:11:32;24.73;;;16.58;;
44143;SDS011;71749;51.920;4.492;2024-03-08T03:14:18;30.13;;;19.20;;
44143;SDS011;71749;51.920;4.492;2024-03-08T03:17:07;30.25;;;19.08;;
44143;SDS011;71749;51.920;4.492;2024-03-08T03:19:52;30.02;;;19.85;;
44143;SDS011;71749;51.920;4.492;2024-03-08T03:22:38;30.83;;;19.60;;
44143;SDS011;71749;51.920;4.492;2024-03-08T03:25:23;30.67;;;19.00;;
44143;SDS011;71749;51.920;4.492;2024-03-08T03:28:12;29.67;;;19.30;;
44143;SDS011;71749;51.920;4.492;2024-03-08T03:31:00;28.00;;;18.23;;
44143;SDS011;71749;51.920;4.492;2024-03-08T03:33:46;28.63;;;19.08;;
44143;SDS011;71749;51.920;4.492;2024-03-08T03:36:32;31.35;;;19.98;;
44143;SDS011;71749;51.920;4.492;2024-03-08T03:39:18;27.10;;;17.75;;
44143;SDS011;71749;51.920;4.492;2024-03-08T03:42:05;27.08;;;18.05;;
44143;SDS011;71749;51.920;4.492;2024-03-08T03:44:50;25.65;;;17.58;;
44143;SDS011;71749;51.920;4.492;2024-03-08T03:47:36;28.63;;;19.15;;
44143;SDS011;71749;51.920;4.492;2024-03-08T03:50:21;30.13;;;19.60;;
44143;SDS011;71749;51.920;4.492;2024-03-08T03:53:07;29.50;;;19.02;;
44143;SDS011;71749;51.920;4.492;2024-03-08T03:55:55;29.33;;;18.48;;
44143;SDS011;71749;51.920;4.492;2024-03-08T03:58:41;32.80;;;19.58;;
44143;SDS011;71749;51.920;4.492;2024-03-08T04:01:27;28.15;;;19.63;;
44143;SDS011;71749;51.920;4.492;2024-03-08T04:04:13;27.65;;;18.67;;
44143;SDS011;71749;51.920;4.492;2024-03-08T04:06:59;31.15;;;20.33;;
44143;SDS011;71749;51.920;4.492;2024-03-08T04:09:45;28.98;;;19.58;;
44143;SDS011;71749;51.920;4.492;2024-03-08T04:12:30;27.73;;;19.02;;
44143;SDS011;71749;51.920;4.492;2024-03-08T04:15:16;30.13;;;19.08;;
44143;SDS011;71749;51.920;4.492;2024-03-08T04:18:02;29.35;;;18.77;;
44143;SDS011;71749;51.920;4.492;2024-03-08T04:20:47;28.67;;;19.85;;
44143;SDS011;71749;51.920;4.492;2024-03-08T04:23:33;31.58;;;20.33;;
44143;SDS011;71749;51.920;4.492;2024-03-08T04:26:22;31.10;;;19.48;;
44143;SDS011;71749;51.920;4.492;2024-03-08T04:29:07;27.17;;;19.30;;
44143;SDS011;71749;51.920;4.492;2024-03-08T04:31:55;29.48;;;20.00;;
44143;SDS011;71749;51.920;4.492;2024-03-08T04:34:40;27.90;;;19.67;;
44143;SDS011;71749;51.920;4.492;2024-03-08T04:37:30;28.70;;;20.30;;
44143;SDS011;71749;51.920;4.492;2024-03-08T04:40:16;28.67;;;20.13;;
44143;SDS011;71749;51.920;4.492;2024-03-08T04:43:04;32.22;;;21.38;;
44143;SDS011;71749;51.920;4.492;2024-03-08T04:45:50;31.13;;;21.10;;
44143;SDS011;71749;51.920;4.492;2024-03-08T04:48:35;31.23;;;21.60;;
44143;SDS011;71749;51.920;4.492;2024-03-08T04:51:22;32.25;;;21.83;;
44143;SDS011;71749;51.920;4.492;2024-03-08T04:54:07;28.17;;;19.70;;
44143;SDS011;71749;51.920;4.492;2024-03-08T04:56:53;32.85;;;20.65;;
44143;SDS011;71749;51.920;4.492;2024-03-08T04:59:38;31.88;;;20.45;;
44143;SDS011;71749;51.920;4.492;2024-03-08T05:02:23;30.85;;;20.92;;
44143;SDS011;71749;51.920;4.492;2024-03-08T05:05:09;33.88;;;22.52;;
44143;SDS011;71749;51.920;4.492;2024-03-08T05:07:58;31.75;;;22.33;;
44143;SDS011;71749;51.920;4.492;2024-03-08T05:10:43;33.25;;;21.63;;
44143;SDS011;71749;51.920;4.492;2024-03-08T05:13:30;28.90;;;21.63;;
44143;SDS011;71749;51.920;4.492;2024-03-08T05:16:15;31.67;;;21.13;;
44143;SDS011;71749;51.920;4.492;2024-03-08T05:19:01;33.33;;;21.38;;
44143;SDS011;71749;51.920;4.492;2024-03-08T05:21:48;38.78;;;21.88;;
44143;SDS011;71749;51.920;4.492;2024-03-08T05:24:35;30.75;;;21.77;;
44143;SDS011;71749;51.920;4.492;2024-03-08T05:27:20;31.73;;;23.05;;
44143;SDS011;71749;51.920;4.492;2024-03-08T05:30:08;32.03;;;22.00;;
44143;SDS011;71749;51.920;4.492;2024-03-08T05:33:00;32.08;;;21.95;;
44143;SDS011;71749;51.920;4.492;2024-03-08T05:35:45;31.02;;;21.45;;
44143;SDS011;71749;51.920;4.492;2024-03-08T05:38:31;33.55;;;22.50;;
44143;SDS011;71749;51.920;4.492;2024-03-08T05:41:16;33.38;;;22.83;;
44143;SDS011;71749;51.920;4.492;2024-03-08T05:44:03;31.85;;;21.85;;
44143;SDS011;71749;51.920;4.492;2024-03-08T05:46:49;33.72;;;23.38;;
44143;SDS011;71749;51.920;4.492;2024-03-08T05:49:35;28.42;;;21.58;;
44143;SDS011;71749;51.920;4.492;2024-03-08T05:52:21;31.63;;;21.80;;
44143;SDS011;71749;51.920;4.492;2024-03-08T05:55:06;30.40;;;21.90;;
44143;SDS011;71749;51.920;4.492;2024-03-08T05:57:53;28.88;;;21.45;;
44143;SDS011;71749;51.920;4.492;2024-03-08T06:00:39;32.25;;;22.23;;
44143;SDS011;71749;51.920;4.492;2024-03-08T06:03:24;31.38;;;22.20;;
44143;SDS011;71749;51.920;4.492;2024-03-08T06:06:13;31.88;;;22.38;;
44143;SDS011;71749;51.920;4.492;2024-03-08T06:09:02;33.92;;;23.05;;
44143;SDS011;71749;51.920;4.492;2024-03-08T06:11:57;34.83;;;24.25;;
44143;SDS011;71749;51.920;4.492;2024-03-08T06:14:42;32.33;;;22.30;;
44143;SDS011;71749;51.920;4.492;2024-03-08T06:17:28;32.42;;;22.10;;
44143;SDS011;71749;51.920;4.492;2024-03-08T06:20:13;34.70;;;23.90;;
44143;SDS011;71749;51.920;4.492;2024-03-08T06:22:59;32.30;;;23.20;;
44143;SDS011;71749;51.920;4.492;2024-03-08T06:25:46;32.63;;;22.27;;
44143;SDS011;71749;51.920;4.492;2024-03-08T06:28:31;34.33;;;23.58;;
44143;SDS011;71749;51.920;4.492;2024-03-08T06:31:17;32.30;;;22.23;;
44143;SDS011;71749;51.920;4.492;2024-03-08T06:34:02;32.30;;;23.30;;
44143;SDS011;71749;51.920;4.492;2024-03-08T06:36:48;32.85;;;23.70;;
44143;SDS011;71749;51.920;4.492;2024-03-08T06:39:34;31.80;;;22.70;;
44143;SDS011;71749;51.920;4.492;2024-03-08T06:42:20;31.27;;;23.20;;
44143;SDS011;71749;51.920;4.492;2024-03-08T06:45:09;36.65;;;24.38;;
44143;SDS011;71749;51.920;4.492;2024-03-08T06:47:55;31.52;;;22.10;;
44143;SDS011;71749;51.920;4.492;2024-03-08T06:50:41;33.08;;;24.10;;
44143;SDS011;71749;51.920;4.492;2024-03-08T06:53:26;33.03;;;23.38;;
44143;SDS011;71749;51.920;4.492;2024-03-08T06:56:12;32.33;;;22.85;;
44143;SDS011;71749;51.920;4.492;2024-03-08T06:58:57;35.88;;;24.08;;
44143;SDS011;71749;51.920;4.492;2024-03-08T07:01:45;31.55;;;22.00;;
44143;SDS011;71749;51.920;4.492;2024-03-08T07:04:31;32.28;;;23.30;;
44143;SDS011;71749;51.920;4.492;2024-03-08T07:07:18;32.58;;;22.48;;
44143;SDS011;71749;51.920;4.492;2024-03-08T07:10:05;31.77;;;22.30;;
44143;SDS011;71749;51.920;4.492;2024-03-08T07:12:56;43.45;;;25.67;;
44143;SDS011;71749;51.920;4.492;2024-03-08T07:15:41;33.92;;;23.02;;
44143;SDS011;71749;51.920;4.492;2024-03-08T07:18:27;32.22;;;22.33;;
44143;SDS011;71749;51.920;4.492;2024-03-08T07:21:16;32.83;;;23.30;;
44143;SDS011;71749;51.920;4.492;2024-03-08T07:24:02;32.03;;;22.08;;
44143;SDS011;71749;51.920;4.492;2024-03-08T07:27:06;34.65;;;22.55;;
44143;SDS011;71749;51.920;4.492;2024-03-08T07:29:51;31.13;;;22.17;;
44143;SDS011;71749;51.920;4.492;2024-03-08T07:32:52;33.35;;;22.67;;
44143;SDS011;71749;51.920;4.492;2024-03-08T07:35:38;34.08;;;23.83;;
44143;SDS011;71749;51.920;4.492;2024-03-08T07:38:25;33.53;;;22.38;;
44143;SDS011;71749;51.920;4.492;2024-03-08T07:41:11;30.52;;;21.73;;
44143;SDS011;71749;51.920;4.492;2024-03-08T07:43:59;30.60;;;21.45;;
44143;SDS011;71749;51.920;4.492;2024-03-08T07:46:48;34.60;;;23.15;;
44143;SDS011;71749;51.920;4.492;2024-03-08T07:49:39;32.03;;;21.73;;
44143;SDS011;71749;51.920;4.492;2024-03-08T07:52:24;30.63;;;22.52;;
44143;SDS011;71749;51.920;4.492;2024-03-08T07:55:10;29.85;;;21.70;;
44143;SDS011;71749;51.920;4.492;2024-03-08T07:57:58;33.00;;;22.52;;
44143;SDS011;71749;51.920;4.492;2024-03-08T08:00:44;32.17;;;22.20;;
44143;SDS011;71749;51.920;4.492;2024-03-08T08:03:29;31.92;;;22.67;;
44143;SDS011;71749;51.920;4.492;2024-03-08T08:06:15;31.55;;;22.10;;
44143;SDS011;71749;51.920;4.492;2024-03-08T08:09:01;31.05;;;21.20;;
44143;SDS011;71749;51.920;4.492;2024-03-08T08:11:46;32.80;;;23.17;;
44143;SDS011;71749;51.920;4.492;2024-03-08T08:14:32;31.08;;;22.40;;
44143;SDS011;71749;51.920;4.492;2024-03-08T08:17:17;31.52;;;22.85;;
44143;SDS011;71749;51.920;4.492;2024-03-08T08:20:03;30.70;;;22.05;;
44143;SDS011;71749;51.920;4.492;2024-03-08T08:22:50;30.63;;;21.95;;
44143;SDS011;71749;51.920;4.492;2024-03-08T08:25:36;27.90;;;21.23;;
44143;SDS011;71749;51.920;4.492;2024-03-08T08:31:03;29.38;;;22.05;;
44143;SDS011;71749;51.920;4.492;2024-03-08T08:33:49;28.75;;;21.95;;
44143;SDS011;71749;51.920;4.492;2024-03-08T08:51:38;25.60;;;19.85;;
44143;SDS011;71749;51.920;4.492;2024-03-08T08:54:38;22.75;;;18.55;;
44143;SDS011;71749;51.920;4.492;2024-03-08T08:57:23;22.48;;;18.27;;
44143;SDS011;71749;51.920;4.492;2024-03-08T09:00:09;23.48;;;18.35;;
44143;SDS011;71749;51.920;4.492;2024-03-08T09:03:00;21.88;;;17.63;;
44143;SDS011;71749;51.920;4.492;2024-03-08T09:05:47;21.98;;;16.85;;
44143;SDS011;71749;51.920;4.492;2024-03-08T09:08:32;24.85;;;19.73;;
44143;SDS011;71749;51.920;4.492;2024-03-08T09:11:19;23.15;;;18.65;;
44143;SDS011;71749;51.920;4.492;2024-03-08T09:14:05;22.92;;;17.98;;
44143;SDS011;71749;51.920;4.492;2024-03-08T09:16:50;20.70;;;16.40;;
44143;SDS011;71749;51.920;4.492;2024-03-08T09:19:36;22.80;;;18.88;;
44143;SDS011;71749;51.920;4.492;2024-03-08T09:22:21;23.95;;;18.73;;
44143;SDS011;71749;51.920;4.492;2024-03-08T09:25:07;23.75;;;19.08;;
44143;SDS011;71749;51.920;4.492;2024-03-08T09:27:54;23.33;;;19.48;;
44143;SDS011;71749;51.920;4.492;2024-03-08T09:30:40;22.02;;;18.08;;
44143;SDS011;71749;51.920;4.492;2024-03-08T09:33:29;23.58;;;17.50;;
44143;SDS011;71749;51.920;4.492;2024-03-08T09:36:17;24.27;;;18.77;;
44143;SDS011;71749;51.920;4.492;2024-03-08T09:39:03;22.70;;;18.42;;
44143;SDS011;71749;51.920;4.492;2024-03-08T09:41:53;24.50;;;18.85;;
44143;SDS011;71749;51.920;4.492;2024-03-08T09:44:46;24.70;;;19.50;;
44143;SDS011;71749;51.920;4.492;2024-03-08T09:47:32;21.55;;;17.73;;
44143;SDS011;71749;51.920;4.492;2024-03-08T09:50:19;21.92;;;18.05;;
44143;SDS011;71749;51.920;4.492;2024-03-08T09:53:05;24.23;;;18.52;;
44143;SDS011;71749;51.920;4.492;2024-03-08T09:55:53;20.67;;;17.27;;
44143;SDS011;71749;51.920;4.492;2024-03-08T09:58:39;21.67;;;18.10;;
44143;SDS011;71749;51.920;4.492;2024-03-08T10:01:42;20.15;;;17.42;;
44143;SDS011;71749;51.920;4.492;2024-03-08T10:04:29;22.05;;;17.52;;
44143;SDS011;71749;51.920;4.492;2024-03-08T10:07:18;21.15;;;17.33;;
44143;SDS011;71749;51.920;4.492;2024-03-08T10:10:04;20.20;;;17.08;;
44143;SDS011;71749;51.920;4.492;2024-03-08T10:12:50;23.52;;;18.15;;
44143;SDS011;71749;51.920;4.492;2024-03-08T10:15:38;19.73;;;16.23;;
44143;SDS011;71749;51.920;4.492;2024-03-08T10:18:26;20.20;;;16.85;;
44143;SDS011;71749;51.920;4.492;2024-03-08T10:21:12;20.13;;;16.08;;
44143;SDS011;71749;51.920;4.492;2024-03-08T10:24:03;17.58;;;15.13;;
44143;SDS011;71749;51.920;4.492;2024-03-08T10:26:53;19.23;;;15.82;;
44143;SDS011;71749;51.920;4.492;2024-03-08T10:29:47;19.52;;;16.45;;
44143;SDS011;71749;51.920;4.492;2024-03-08T10:32:49;19.98;;;16.55;;
44143;SDS011;71749;51.920;4.492;2024-03-08T10:35:34;20.33;;;17.92;;
44143;SDS011;71749;51.920;4.492;2024-03-08T10:38:20;21.45;;;17.20;;
44143;SDS011;71749;51.920;4.492;2024-03-08T10:41:09;19.35;;;16.08;;
44143;SDS011;71749;51.920;4.492;2024-03-08T10:44:15;19.95;;;16.48;;
44143;SDS011;71749;51.920;4.492;2024-03-08T10:47:18;19.65;;;15.60;;
44143;SDS011;71749;51.920;4.492;2024-03-08T11:00:48;18.65;;;15.27;;
44143;SDS011;71749;51.920;4.492;2024-03-08T11:06:30;17.77;;;15.00;;
44143;SDS011;71749;51.920;4.492;2024-03-08T11:09:36;15.45;;;13.25;;
44143;SDS011;71749;51.920;4.492;2024-03-08T11:12:27;17.30;;;14.82;;
44143;SDS011;71749;51.920;4.492;2024-03-08T11:17:51;18.23;;;15.18;;
44143;SDS011;71749;51.920;4.492;2024-03-08T11:20:37;18.30;;;14.65;;
44143;SDS011;71749;51.920;4.492;2024-03-08T11:23:23;17.10;;;14.77;;
44143;SDS011;71749;51.920;4.492;2024-03-08T11:26:19;17.67;;;15.30;;
44143;SDS011;71749;51.920;4.492;2024-03-08T11:32:16;17.08;;;15.07;;
44143;SDS011;71749;51.920;4.492;2024-03-08T11:43:12;19.58;;;16.23;;
44143;SDS011;71749;51.920;4.492;2024-03-08T11:46:09;21.67;;;16.33;;
44143;SDS011;71749;51.920;4.492;2024-03-08T11:48:54;22.70;;;16.55;;
44143;SDS011;71749;51.920;4.492;2024-03-08T11:51:43;21.90;;;16.73;;
44143;SDS011;71749;51.920;4.492;2024-03-08T11:54:37;23.00;;;17.13;;
44143;SDS011;71749;51.920;4.492;2024-03-08T11:57:23;23.83;;;17.15;;
44143;SDS011;71749;51.920;4.492;2024-03-08T12:00:14;23.17;;;17.27;;
44143;SDS011;71749;51.920;4.492;2024-03-08T12:03:07;21.15;;;15.80;;
44143;SDS011;71749;51.920;4.492;2024-03-08T12:05:56;23.83;;;17.35;;
44143;SDS011;71749;51.920;4.492;2024-03-08T12:08:42;23.65;;;18.05;;
44143;SDS011;71749;51.920;4.492;2024-03-08T12:11:27;23.35;;;17.25;;
44143;SDS011;71749;51.920;4.492;2024-03-08T12:14:17;23.75;;;17.23;;
44143;SDS011;71749;51.920;4.492;2024-03-08T12:17:03;23.92;;;18.00;;
44143;SDS011;71749;51.920;4.492;2024-03-08T12:19:50;23.90;;;16.90;;
44143;SDS011;71749;51.920;4.492;2024-03-08T12:22:43;23.67;;;18.33;;
44143;SDS011;71749;51.920;4.492;2024-03-08T12:25:32;22.08;;;15.95;;
44143;SDS011;71749;51.920;4.492;2024-03-08T12:28:20;21.38;;;15.73;;
44143;SDS011;71749;51.920;4.492;2024-03-08T12:31:07;24.30;;;17.63;;
44143;SDS011;71749;51.920;4.492;2024-03-08T12:33:55;22.15;;;16.48;;
44143;SDS011;71749;51.920;4.492;2024-03-08T12:36:44;21.35;;;16.15;;
44143;SDS011;71749;51.920;4.492;2024-03-08T12:39:32;22.83;;;16.42;;
44143;SDS011;71749;51.920;4.492;2024-03-08T12:42:18;25.35;;;16.60;;
44143;SDS011;71749;51.920;4.492;2024-03-08T12:45:04;23.23;;;15.52;;
44143;SDS011;71749;51.920;4.492;2024-03-08T12:47:51;20.98;;;14.85;;
44143;SDS011;71749;51.920;4.492;2024-03-08T12:50:38;21.50;;;15.50;;
44143;SDS011;71749;51.920;4.492;2024-03-08T12:53:23;22.42;;;15.73;;
44143;SDS011;71749;51.920;4.492;2024-03-08T12:56:11;21.00;;;15.02;;
44143;SDS011;71749;51.920;4.492;2024-03-08T12:58:57;20.67;;;15.82;;
44143;SDS011;71749;51.920;4.492;2024-03-08T13:01:42;21.20;;;15.85;;
44143;SDS011;71749;51.920;4.492;2024-03-08T13:04:27;20.73;;;15.52;;
44143;SDS011;71749;51.920;4.492;2024-03-08T13:07:13;22.17;;;15.82;;
44143;SDS011;71749;51.920;4.492;2024-03-08T13:10:01;22.95;;;16.02;;
44143;SDS011;71749;51.920;4.492;2024-03-08T13:12:47;24.42;;;16.33;;
44143;SDS011;71749;51.920;4.492;2024-03-08T13:15:37;21.35;;;15.57;;
44143;SDS011;71749;51.920;4.492;2024-03-08T13:18:25;22.35;;;15.55;;
44143;SDS011;71749;51.920;4.492;2024-03-08T13:21:11;22.30;;;16.30;;
44143;SDS011;71749;51.920;4.492;2024-03-08T13:24:04;25.23;;;17.25;;
44143;SDS011;71749;51.920;4.492;2024-03-08T13:26:50;23.13;;;17.02;;
44143;SDS011;71749;51.920;4.492;2024-03-08T13:29:36;24.88;;;18.20;;
44143;SDS011;71749;51.920;4.492;2024-03-08T13:32:23;21.92;;;16.73;;
44143;SDS011;71749;51.920;4.492;2024-03-08T13:35:10;24.27;;;17.42;;
44143;SDS011;71749;51.920;4.492;2024-03-08T13:37:59;24.92;;;18.25;;
44143;SDS011;71749;51.920;4.492;2024-03-08T13:40:44;21.27;;;15.82;;
44143;SDS011;71749;51.920;4.492;2024-03-08T13:43:30;21.75;;;17.10;;
44143;SDS011;71749;51.920;4.492;2024-03-08T13:46:19;23.67;;;17.42;;
44143;SDS011;71749;51.920;4.492;2024-03-08T13:49:05;23.67;;;16.83;;
44143;SDS011;71749;51.920;4.492;2024-03-08T13:51:52;24.13;;;17.20;;
44143;SDS011;71749;51.920;4.492;2024-03-08T13:54:39;24.40;;;17.98;;
44143;SDS011;71749;51.920;4.492;2024-03-08T13:57:25;24.02;;;17.08;;
44143;SDS011;71749;51.920;4.492;2024-03-08T14:00:12;23.80;;;17.48;;
44143;SDS011;71749;51.920;4.492;2024-03-08T14:02:58;23.20;;;16.55;;
44143;SDS011;71749;51.920;4.492;2024-03-08T14:05:44;22.85;;;16.77;;
44143;SDS011;71749;51.920;4.492;2024-03-08T14:08:30;23.33;;;16.92;;
44143;SDS011;71749;51.920;4.492;2024-03-08T14:11:18;24.30;;;17.25;;
44143;SDS011;71749;51.920;4.492;2024-03-08T14:14:04;24.25;;;16.55;;
44143;SDS011;71749;51.920;4.492;2024-03-08T14:16:50;22.90;;;17.00;;
44143;SDS011;71749;51.920;4.492;2024-03-08T14:19:39;26.08;;;18.40;;
44143;SDS011;71749;51.920;4.492;2024-03-08T14:22:27;26.13;;;18.73;;
44143;SDS011;71749;51.920;4.492;2024-03-08T14:25:15;23.10;;;16.73;;
44143;SDS011;71749;51.920;4.492;2024-03-08T14:28:04;24.67;;;17.92;;
44143;SDS011;71749;51.920;4.492;2024-03-08T14:30:52;27.23;;;18.20;;
44143;SDS011;71749;51.920;4.492;2024-03-08T14:33:38;25.88;;;17.30;;
44143;SDS011;71749;51.920;4.492;2024-03-08T14:36:24;23.85;;;17.38;;
44143;SDS011;71749;51.920;4.492;2024-03-08T14:39:10;23.85;;;18.20;;
44143;SDS011;71749;51.920;4.492;2024-03-08T14:41:56;27.70;;;17.40;;
44143;SDS011;71749;51.920;4.492;2024-03-08T14:44:44;24.70;;;17.35;;
44143;SDS011;71749;51.920;4.492;2024-03-08T14:47:33;24.75;;;16.75;;
44143;SDS011;71749;51.920;4.492;2024-03-08T14:50:19;24.13;;;17.60;;
44143;SDS011;71749;51.920;4.492;2024-03-08T14:53:07;25.60;;;17.52;;
44143;SDS011;71749;51.920;4.492;2024-03-08T14:55:52;24.48;;;15.95;;
44143;SDS011;71749;51.920;4.492;2024-03-08T14:58:41;22.35;;;16.05;;
44143;SDS011;71749;51.920;4.492;2024-03-08T15:01:26;24.13;;;17.27;;
44143;SDS011;71749;51.920;4.492;2024-03-08T15:04:14;25.88;;;17.17;;
44143;SDS011;71749;51.920;4.492;2024-03-08T15:07:00;25.05;;;16.55;;
44143;SDS011;71749;51.920;4.492;2024-03-08T15:09:46;24.00;;;17.63;;
44143;SDS011;71749;51.920;4.492;2024-03-08T15:12:32;22.08;;;15.70;;
44143;SDS011;71749;51.920;4.492;2024-03-08T15:15:17;20.48;;;15.65;;
44143;SDS011;71749;51.920;4.492;2024-03-08T15:18:03;23.85;;;16.10;;
44143;SDS011;71749;51.920;4.492;2024-03-08T15:20:48;24.98;;;16.65;;
44143;SDS011;71749;51.920;4.492;2024-03-08T15:23:34;25.92;;;17.83;;
44143;SDS011;71749;51.920;4.492;2024-03-08T15:26:19;24.05;;;17.02;;
44143;SDS011;71749;51.920;4.492;2024-03-08T15:29:06;23.13;;;16.75;;
44143;SDS011;71749;51.920;4.492;2024-03-08T15:31:52;25.20;;;17.30;;
44143;SDS011;71749;51.920;4.492;2024-03-08T15:34:41;24.25;;;17.33;;
44143;SDS011;71749;51.920;4.492;2024-03-08T15:37:27;23.27;;;15.93;;
44143;SDS011;71749;51.920;4.492;2024-03-08T15:40:15;25.52;;;17.67;;
44143;SDS011;71749;51.920;4.492;2024-03-08T15:43:07;23.67;;;17.50;;
44143;SDS011;71749;51.920;4.492;2024-03-08T15:45:53;24.50;;;16.33;;
44143;SDS011;71749;51.920;4.492;2024-03-08T15:48:39;23.25;;;16.27;;
44143;SDS011;71749;51.920;4.492;2024-03-08T15:51:27;22.48;;;16.40;;
44143;SDS011;71749;51.920;4.492;2024-03-08T15:54:12;23.42;;;17.73;;
44143;SDS011;71749;51.920;4.492;2024-03-08T15:56:57;26.00;;;16.88;;
44143;SDS011;71749;51.920;4.492;2024-03-08T15:59:42;21.85;;;16.13;;
44143;SDS011;71749;51.920;4.492;2024-03-08T16:02:28;23.05;;;16.50;;
44143;SDS011;71749;51.920;4.492;2024-03-08T16:05:13;28.02;;;18.13;;
44143;SDS011;71749;51.920;4.492;2024-03-08T16:07:59;26.13;;;17.48;;
44143;SDS011;71749;51.920;4.492;2024-03-08T16:10:46;25.45;;;17.40;;
44143;SDS011;71749;51.920;4.492;2024-03-08T16:13:35;27.38;;;19.95;;
44143;SDS011;71749;51.920;4.492;2024-03-08T16:16:23;24.55;;;18.15;;
44143;SDS011;71749;51.920;4.492;2024-03-08T16:19:08;26.02;;;19.25;;
44143;SDS011;71749;51.920;4.492;2024-03-08T16:21:54;25.30;;;17.95;;
44143;SDS011;71749;51.920;4.492;2024-03-08T16:24:42;26.75;;;18.70;;
44143;SDS011;71749;51.920;4.492;2024-03-08T16:27:27;24.73;;;18.00;;
44143;SDS011;71749;51.920;4.492;2024-03-08T16:30:12;25.60;;;18.33;;
44143;SDS011;71749;51.920;4.492;2024-03-08T16:33:00;24.88;;;17.83;;
44143;SDS011;71749;51.920;4.492;2024-03-08T16:35:46;27.17;;;19.40;;
44143;SDS011;71749;51.920;4.492;2024-03-08T16:38:31;26.20;;;18.85;;
44143;SDS011;71749;51.920;4.492;2024-03-08T16:41:19;26.40;;;18.45;;
44143;SDS011;71749;51.920;4.492;2024-03-08T16:44:06;27.13;;;18.25;;
44143;SDS011;71749;51.920;4.492;2024-03-08T16:46:52;23.23;;;17.60;;
44143;SDS011;71749;51.920;4.492;2024-03-08T16:49:43;24.42;;;17.33;;
44143;SDS011;71749;51.920;4.492;2024-03-08T16:52:28;29.27;;;17.58;;
44143;SDS011;71749;51.920;4.492;2024-03-08T16:55:14;23.02;;;16.92;;
44143;SDS011;71749;51.920;4.492;2024-03-08T16:58:00;25.67;;;17.65;;
44143;SDS011;71749;51.920;4.492;2024-03-08T17:00:45;24.13;;;17.08;;